sensor_id;sensor_type;location;lat;lon;timestamp;P1;P2;P0
75960;PMS7003;64644;48.914;2.254;2023-07-09T00:01:09;12.50;12.50;9.25
75960;PMS7003;64644;48.914;2.254;2023-07-09T00:03:38;11.25;10.50;7.50
75960;PMS7003;64644;48.914;2.254;2023-07-09T00:06:04;10.50;10.50;8.25
75960;PMS7003;64644;48.914;2.254;2023-07-09T00:08:30;9.00;9.00;7.00
75960;PMS7003;64644;48.914;2.254;2023-07-09T00:10:56;8.50;8.50;7.50
75960;PMS7003;64644;48.914;2.254;2023-07-09T00:13:25;10.50;10.50;8.25
75960;PMS7003;64644;48.914;2.254;2023-07-09T00:15:52;10.25;10.25;7.75
75960;PMS7003;64644;48.914;2.254;2023-07-09T00:18:20;11.50;10.50;8.00
75960;PMS7003;64644;48.914;2.254;2023-07-09T00:20:45;10.75;10.00;7.00
75960;PMS7003;64644;48.914;2.254;2023-07-09T00:23:13;11.00;11.00;8.00
75960;PMS7003;64644;48.914;2.254;2023-07-09T00:25:39;7.25;7.25;6.25
75960;PMS7003;64644;48.914;2.254;2023-07-09T00:28:12;13.75;12.00;8.00
75960;PMS7003;64644;48.914;2.254;2023-07-09T00:30:46;10.75;9.50;8.00
75960;PMS7003;64644;48.914;2.254;2023-07-09T00:33:13;11.25;9.50;8.25
75960;PMS7003;64644;48.914;2.254;2023-07-09T00:35:44;10.75;10.25;8.25
75960;PMS7003;64644;48.914;2.254;2023-07-09T00:38:15;11.75;11.75;8.00
75960;PMS7003;64644;48.914;2.254;2023-07-09T00:40:47;10.75;10.75;7.25
75960;PMS7003;64644;48.914;2.254;2023-07-09T00:43:21;10.00;8.50;7.50
75960;PMS7003;64644;48.914;2.254;2023-07-09T00:46:07;10.50;10.25;7.50
75960;PMS7003;64644;48.914;2.254;2023-07-09T00:48:36;10.00;10.00;7.75
75960;PMS7003;64644;48.914;2.254;2023-07-09T00:51:04;9.75;9.75;8.50
75960;PMS7003;64644;48.914;2.254;2023-07-09T00:53:40;10.00;7.75;5.75
75960;PMS7003;64644;48.914;2.254;2023-07-09T00:56:11;11.25;11.25;8.00
75960;PMS7003;64644;48.914;2.254;2023-07-09T00:58:39;13.25;10.25;7.00
75960;PMS7003;64644;48.914;2.254;2023-07-09T01:01:11;10.75;10.75;8.00
75960;PMS7003;64644;48.914;2.254;2023-07-09T01:03:42;9.00;9.00;7.00
75960;PMS7003;64644;48.914;2.254;2023-07-09T01:06:12;9.75;9.00;7.75
75960;PMS7003;64644;48.914;2.254;2023-07-09T01:08:40;8.50;8.50;7.00
75960;PMS7003;64644;48.914;2.254;2023-07-09T01:11:16;10.00;7.50;6.00
75960;PMS7003;64644;48.914;2.254;2023-07-09T01:13:46;12.00;12.00;7.25
75960;PMS7003;64644;48.914;2.254;2023-07-09T01:16:17;11.50;9.25;7.75
75960;PMS7003;64644;48.914;2.254;2023-07-09T01:18:43;12.75;12.25;8.00
75960;PMS7003;64644;48.914;2.254;2023-07-09T01:21:09;12.50;10.75;7.50
75960;PMS7003;64644;48.914;2.254;2023-07-09T01:23:40;11.00;11.00;7.00
75960;PMS7003;64644;48.914;2.254;2023-07-09T01:26:20;13.50;12.50;8.50
75960;PMS7003;64644;48.914;2.254;2023-07-09T01:28:47;11.25;10.75;7.00
75960;PMS7003;64644;48.914;2.254;2023-07-09T01:31:14;13.25;11.75;8.25
75960;PMS7003;64644;48.914;2.254;2023-07-09T01:33:40;12.00;11.00;7.25
75960;PMS7003;64644;48.914;2.254;2023-07-09T01:36:10;9.75;9.75;7.00
75960;PMS7003;64644;48.914;2.254;2023-07-09T01:38:38;10.25;10.25;6.50
75960;PMS7003;64644;48.914;2.254;2023-07-09T01:41:05;10.75;10.75;7.00
75960;PMS7003;64644;48.914;2.254;2023-07-09T01:43:31;10.00;10.00;7.75
75960;PMS7003;64644;48.914;2.254;2023-07-09T01:45:57;10.50;10.50;8.00
75960;PMS7003;64644;48.914;2.254;2023-07-09T01:48:24;11.50;10.00;8.00
75960;PMS7003;64644;48.914;2.254;2023-07-09T01:50:50;11.00;10.50;7.75
75960;PMS7003;64644;48.914;2.254;2023-07-09T01:53:20;10.75;10.75;6.75
75960;PMS7003;64644;48.914;2.254;2023-07-09T01:55:51;13.00;13.00;9.00
75960;PMS7003;64644;48.914;2.254;2023-07-09T01:58:19;10.25;10.25;8.50
75960;PMS7003;64644;48.914;2.254;2023-07-09T02:00:49;12.50;11.50;9.50
75960;PMS7003;64644;48.914;2.254;2023-07-09T02:03:15;13.00;13.00;10.00
75960;PMS7003;64644;48.914;2.254;2023-07-09T02:05:42;11.75;10.00;8.25
75960;PMS7003;64644;48.914;2.254;2023-07-09T02:08:08;13.25;13.25;10.75
75960;PMS7003;64644;48.914;2.254;2023-07-09T02:10:33;13.75;13.00;11.00
75960;PMS7003;64644;48.914;2.254;2023-07-09T02:12:59;17.25;15.00;11.25
75960;PMS7003;64644;48.914;2.254;2023-07-09T02:15:24;17.25;16.75;11.75
75960;PMS7003;64644;48.914;2.254;2023-07-09T02:17:49;19.50;17.25;12.75
75960;PMS7003;64644;48.914;2.254;2023-07-09T02:20:17;20.25;19.50;13.50
75960;PMS7003;64644;48.914;2.254;2023-07-09T02:22:44;21.50;19.00;14.50
75960;PMS7003;64644;48.914;2.254;2023-07-09T02:25:09;23.75;21.25;15.50
75960;PMS7003;64644;48.914;2.254;2023-07-09T02:27:35;19.50;19.50;14.75
75960;PMS7003;64644;48.914;2.254;2023-07-09T02:30:02;21.75;21.75;14.25
75960;PMS7003;64644;48.914;2.254;2023-07-09T02:32:28;21.25;21.25;13.75
75960;PMS7003;64644;48.914;2.254;2023-07-09T02:34:54;19.75;17.25;13.75
75960;PMS7003;64644;48.914;2.254;2023-07-09T02:37:21;21.00;20.25;12.75
75960;PMS7003;64644;48.914;2.254;2023-07-09T02:39:50;15.50;13.25;9.75
75960;PMS7003;64644;48.914;2.254;2023-07-09T02:42:17;14.00;13.00;9.75
75960;PMS7003;64644;48.914;2.254;2023-07-09T02:44:44;14.00;14.00;10.00
75960;PMS7003;64644;48.914;2.254;2023-07-09T02:47:10;10.50;10.50;8.75
75960;PMS7003;64644;48.914;2.254;2023-07-09T02:49:36;13.00;13.00;9.75
75960;PMS7003;64644;48.914;2.254;2023-07-09T02:52:03;10.00;10.00;8.50
75960;PMS7003;64644;48.914;2.254;2023-07-09T02:54:29;13.75;13.75;9.75
75960;PMS7003;64644;48.914;2.254;2023-07-09T02:56:54;14.50;10.75;8.75
75960;PMS7003;64644;48.914;2.254;2023-07-09T02:59:20;15.00;11.75;9.25
75960;PMS7003;64644;48.914;2.254;2023-07-09T03:01:46;12.00;12.00;9.50
75960;PMS7003;64644;48.914;2.254;2023-07-09T03:04:12;10.75;10.25;7.25
75960;PMS7003;64644;48.914;2.254;2023-07-09T03:06:40;12.75;11.50;9.50
75960;PMS7003;64644;48.914;2.254;2023-07-09T03:09:06;13.25;12.75;8.50
75960;PMS7003;64644;48.914;2.254;2023-07-09T03:11:32;12.50;12.50;8.00
75960;PMS7003;64644;48.914;2.254;2023-07-09T03:13:59;14.25;12.25;9.50
75960;PMS7003;64644;48.914;2.254;2023-07-09T03:16:26;11.25;11.25;8.50
75960;PMS7003;64644;48.914;2.254;2023-07-09T03:18:53;11.25;9.75;8.00
75960;PMS7003;64644;48.914;2.254;2023-07-09T03:21:19;12.50;12.00;9.25
75960;PMS7003;64644;48.914;2.254;2023-07-09T03:23:45;13.00;12.75;9.00
75960;PMS7003;64644;48.914;2.254;2023-07-09T03:26:10;11.25;11.25;9.00
75960;PMS7003;64644;48.914;2.254;2023-07-09T03:28:36;11.50;11.50;8.50
75960;PMS7003;64644;48.914;2.254;2023-07-09T03:31:01;12.25;10.75;8.50
75960;PMS7003;64644;48.914;2.254;2023-07-09T03:33:27;12.50;11.00;8.50
75960;PMS7003;64644;48.914;2.254;2023-07-09T03:35:52;10.50;9.75;8.50
75960;PMS7003;64644;48.914;2.254;2023-07-09T03:38:19;10.00;10.00;8.50
75960;PMS7003;64644;48.914;2.254;2023-07-09T03:40:44;12.50;11.50;8.25
75960;PMS7003;64644;48.914;2.254;2023-07-09T03:43:10;9.25;9.25;7.25
75960;PMS7003;64644;48.914;2.254;2023-07-09T03:45:36;11.75;11.75;8.25
75960;PMS7003;64644;48.914;2.254;2023-07-09T03:48:03;10.00;10.00;8.50
75960;PMS7003;64644;48.914;2.254;2023-07-09T03:50:29;11.75;10.50;8.75
75960;PMS7003;64644;48.914;2.254;2023-07-09T03:52:55;12.75;12.00;10.00
75960;PMS7003;64644;48.914;2.254;2023-07-09T03:55:22;10.00;10.00;7.25
75960;PMS7003;64644;48.914;2.254;2023-07-09T03:57:47;10.00;10.00;8.25
75960;PMS7003;64644;48.914;2.254;2023-07-09T04:00:12;12.00;11.75;9.50
75960;PMS7003;64644;48.914;2.254;2023-07-09T04:02:39;10.25;10.25;9.00
75960;PMS7003;64644;48.914;2.254;2023-07-09T04:05:06;8.25;8.25;6.00
75960;PMS7003;64644;48.914;2.254;2023-07-09T04:07:33;11.50;10.25;8.00
75960;PMS7003;64644;48.914;2.254;2023-07-09T04:09:59;10.00;10.00;8.75
75960;PMS7003;64644;48.914;2.254;2023-07-09T04:12:24;11.00;11.00;8.00
75960;PMS7003;64644;48.914;2.254;2023-07-09T04:14:50;10.75;10.50;7.00
75960;PMS7003;64644;48.914;2.254;2023-07-09T04:17:15;12.25;11.25;9.00
75960;PMS7003;64644;48.914;2.254;2023-07-09T04:19:40;12.50;10.75;8.00
75960;PMS7003;64644;48.914;2.254;2023-07-09T04:22:06;11.75;11.75;8.50
75960;PMS7003;64644;48.914;2.254;2023-07-09T04:24:31;10.25;10.25;8.50
75960;PMS7003;64644;48.914;2.254;2023-07-09T04:26:58;10.75;10.75;8.50
75960;PMS7003;64644;48.914;2.254;2023-07-09T04:29:28;9.50;9.25;8.25
75960;PMS7003;64644;48.914;2.254;2023-07-09T04:31:54;11.50;11.00;8.25
75960;PMS7003;64644;48.914;2.254;2023-07-09T04:34:19;10.00;10.00;7.00
75960;PMS7003;64644;48.914;2.254;2023-07-09T04:36:44;9.25;9.25;7.00
75960;PMS7003;64644;48.914;2.254;2023-07-09T04:39:10;12.75;12.75;9.00
75960;PMS7003;64644;48.914;2.254;2023-07-09T04:41:35;12.75;10.50;8.50
75960;PMS7003;64644;48.914;2.254;2023-07-09T04:44:00;12.00;11.00;8.00
75960;PMS7003;64644;48.914;2.254;2023-07-09T04:46:26;11.75;11.25;9.25
75960;PMS7003;64644;48.914;2.254;2023-07-09T04:48:51;11.50;10.75;8.25
75960;PMS7003;64644;48.914;2.254;2023-07-09T04:51:16;10.25;10.25;8.50
75960;PMS7003;64644;48.914;2.254;2023-07-09T04:53:42;11.50;10.75;7.25
75960;PMS7003;64644;48.914;2.254;2023-07-09T04:56:08;9.50;9.50;7.50
75960;PMS7003;64644;48.914;2.254;2023-07-09T04:58:34;10.75;8.75;7.00
75960;PMS7003;64644;48.914;2.254;2023-07-09T05:01:00;12.00;11.25;7.25
75960;PMS7003;64644;48.914;2.254;2023-07-09T05:03:25;9.25;9.25;8.00
75960;PMS7003;64644;48.914;2.254;2023-07-09T05:05:51;11.75;11.75;9.00
75960;PMS7003;64644;48.914;2.254;2023-07-09T05:08:17;11.00;11.00;9.00
75960;PMS7003;64644;48.914;2.254;2023-07-09T05:10:43;15.00;11.00;8.25
75960;PMS7003;64644;48.914;2.254;2023-07-09T05:13:15;11.50;10.75;7.00
75960;PMS7003;64644;48.914;2.254;2023-07-09T05:15:40;11.50;9.75;8.50
75960;PMS7003;64644;48.914;2.254;2023-07-09T05:18:08;9.75;9.75;7.50
75960;PMS7003;64644;48.914;2.254;2023-07-09T05:20:34;9.50;9.50;7.00
75960;PMS7003;64644;48.914;2.254;2023-07-09T05:22:59;11.75;11.75;8.00
75960;PMS7003;64644;48.914;2.254;2023-07-09T05:25:25;10.50;10.50;8.50
75960;PMS7003;64644;48.914;2.254;2023-07-09T05:27:50;13.00;12.00;9.00
75960;PMS7003;64644;48.914;2.254;2023-07-09T05:30:16;10.00;10.00;8.00
75960;PMS7003;64644;48.914;2.254;2023-07-09T05:32:42;9.25;9.25;7.50
75960;PMS7003;64644;48.914;2.254;2023-07-09T05:35:07;9.00;9.00;7.00
75960;PMS7003;64644;48.914;2.254;2023-07-09T05:37:33;11.00;9.75;7.75
75960;PMS7003;64644;48.914;2.254;2023-07-09T05:39:59;9.50;9.50;7.50
75960;PMS7003;64644;48.914;2.254;2023-07-09T05:42:24;12.00;10.00;7.50
75960;PMS7003;64644;48.914;2.254;2023-07-09T05:44:50;10.25;10.00;7.00
75960;PMS7003;64644;48.914;2.254;2023-07-09T05:47:16;10.50;10.50;8.00
75960;PMS7003;64644;48.914;2.254;2023-07-09T05:49:41;10.00;10.00;7.75
75960;PMS7003;64644;48.914;2.254;2023-07-09T05:52:07;11.00;8.50;6.50
75960;PMS7003;64644;48.914;2.254;2023-07-09T05:54:32;12.25;12.00;9.00
75960;PMS7003;64644;48.914;2.254;2023-07-09T05:56:58;11.00;10.50;7.50
75960;PMS7003;64644;48.914;2.254;2023-07-09T05:59:23;9.50;9.00;6.75
75960;PMS7003;64644;48.914;2.254;2023-07-09T06:01:49;10.00;8.75;7.25
75960;PMS7003;64644;48.914;2.254;2023-07-09T06:04:14;12.00;10.25;6.75
75960;PMS7003;64644;48.914;2.254;2023-07-09T06:06:40;14.25;9.75;7.00
75960;PMS7003;64644;48.914;2.254;2023-07-09T06:09:06;10.75;10.50;6.50
75960;PMS7003;64644;48.914;2.254;2023-07-09T06:11:33;9.00;9.00;7.25
75960;PMS7003;64644;48.914;2.254;2023-07-09T06:13:59;10.25;10.25;8.00
75960;PMS7003;64644;48.914;2.254;2023-07-09T06:16:24;11.00;10.00;8.25
75960;PMS7003;64644;48.914;2.254;2023-07-09T06:18:50;10.75;8.25;6.25
75960;PMS7003;64644;48.914;2.254;2023-07-09T06:21:15;9.00;9.00;6.00
75960;PMS7003;64644;48.914;2.254;2023-07-09T06:23:41;8.25;8.25;6.75
75960;PMS7003;64644;48.914;2.254;2023-07-09T06:26:06;9.00;9.00;8.00
75960;PMS7003;64644;48.914;2.254;2023-07-09T06:28:31;8.50;8.50;7.75
75960;PMS7003;64644;48.914;2.254;2023-07-09T06:30:57;8.75;8.50;5.50
75960;PMS7003;64644;48.914;2.254;2023-07-09T06:33:23;10.25;9.75;8.25
75960;PMS7003;64644;48.914;2.254;2023-07-09T06:35:51;9.75;9.75;8.00
75960;PMS7003;64644;48.914;2.254;2023-07-09T06:38:18;9.00;9.00;6.00
75960;PMS7003;64644;48.914;2.254;2023-07-09T06:40:44;7.75;7.75;6.00
75960;PMS7003;64644;48.914;2.254;2023-07-09T06:43:10;11.50;9.50;7.00
75960;PMS7003;64644;48.914;2.254;2023-07-09T06:45:36;11.00;10.75;8.25
75960;PMS7003;64644;48.914;2.254;2023-07-09T06:48:01;10.00;9.00;6.00
75960;PMS7003;64644;48.914;2.254;2023-07-09T06:50:27;10.75;10.75;6.75
75960;PMS7003;64644;48.914;2.254;2023-07-09T06:52:53;10.25;10.25;7.00
75960;PMS7003;64644;48.914;2.254;2023-07-09T06:55:18;12.25;9.75;7.00
75960;PMS7003;64644;48.914;2.254;2023-07-09T06:57:44;9.00;9.00;6.00
75960;PMS7003;64644;48.914;2.254;2023-07-09T07:00:10;10.75;9.25;7.50
75960;PMS7003;64644;48.914;2.254;2023-07-09T07:02:36;10.00;10.00;6.50
75960;PMS7003;64644;48.914;2.254;2023-07-09T07:05:01;10.50;8.00;6.25
75960;PMS7003;64644;48.914;2.254;2023-07-09T07:07:27;11.00;9.75;7.00
75960;PMS7003;64644;48.914;2.254;2023-07-09T07:09:53;11.50;9.75;6.00
75960;PMS7003;64644;48.914;2.254;2023-07-09T07:12:25;10.25;10.25;6.75
75960;PMS7003;64644;48.914;2.254;2023-07-09T07:14:53;12.50;11.50;8.25
75960;PMS7003;64644;48.914;2.254;2023-07-09T07:17:19;11.50;11.00;7.50
75960;PMS7003;64644;48.914;2.254;2023-07-09T07:19:45;10.50;9.75;8.00
75960;PMS7003;64644;48.914;2.254;2023-07-09T07:22:10;9.25;8.25;6.75
75960;PMS7003;64644;48.914;2.254;2023-07-09T07:24:36;8.25;8.25;6.50
75960;PMS7003;64644;48.914;2.254;2023-07-09T07:27:01;10.25;9.50;6.75
75960;PMS7003;64644;48.914;2.254;2023-07-09T07:29:27;10.00;8.25;6.00
75960;PMS7003;64644;48.914;2.254;2023-07-09T07:31:53;11.50;9.50;6.75
75960;PMS7003;64644;48.914;2.254;2023-07-09T07:34:19;8.50;8.50;6.50
75960;PMS7003;64644;48.914;2.254;2023-07-09T07:36:45;7.50;7.50;5.75
75960;PMS7003;64644;48.914;2.254;2023-07-09T07:39:10;6.25;6.25;5.25
75960;PMS7003;64644;48.914;2.254;2023-07-09T07:41:36;7.00;6.00;5.00
75960;PMS7003;64644;48.914;2.254;2023-07-09T07:44:01;6.50;6.50;5.00
75960;PMS7003;64644;48.914;2.254;2023-07-09T07:46:27;10.25;10.25;6.75
75960;PMS7003;64644;48.914;2.254;2023-07-09T07:48:54;7.75;6.50;5.00
75960;PMS7003;64644;48.914;2.254;2023-07-09T07:51:19;9.75;9.75;8.00
75960;PMS7003;64644;48.914;2.254;2023-07-09T07:53:47;6.50;6.50;5.00
75960;PMS7003;64644;48.914;2.254;2023-07-09T07:56:14;7.25;6.25;5.00
75960;PMS7003;64644;48.914;2.254;2023-07-09T07:58:39;6.00;5.75;5.00
75960;PMS7003;64644;48.914;2.254;2023-07-09T08:01:05;7.25;7.25;5.00
75960;PMS7003;64644;48.914;2.254;2023-07-09T08:03:30;13.00;8.75;5.25
75960;PMS7003;64644;48.914;2.254;2023-07-09T08:05:56;7.25;6.00;5.25
75960;PMS7003;64644;48.914;2.254;2023-07-09T08:08:21;9.75;8.75;6.00
75960;PMS7003;64644;48.914;2.254;2023-07-09T08:10:46;7.50;7.50;6.75
75960;PMS7003;64644;48.914;2.254;2023-07-09T08:13:12;11.00;10.00;6.00
75960;PMS7003;64644;48.914;2.254;2023-07-09T08:15:38;9.75;8.75;6.25
75960;PMS7003;64644;48.914;2.254;2023-07-09T08:18:04;8.25;8.25;6.50
75960;PMS7003;64644;48.914;2.254;2023-07-09T08:20:29;12.50;11.00;8.25
75960;PMS7003;64644;48.914;2.254;2023-07-09T08:22:54;9.00;9.00;6.75
75960;PMS7003;64644;48.914;2.254;2023-07-09T08:25:20;7.50;7.50;6.25
75960;PMS7003;64644;48.914;2.254;2023-07-09T08:27:45;8.00;8.00;6.00
75960;PMS7003;64644;48.914;2.254;2023-07-09T08:30:11;7.50;7.50;6.00
75960;PMS7003;64644;48.914;2.254;2023-07-09T08:32:36;11.50;9.50;5.75
75960;PMS7003;64644;48.914;2.254;2023-07-09T08:35:02;4.25;4.25;3.25
75960;PMS7003;64644;48.914;2.254;2023-07-09T08:37:27;8.50;8.50;5.00
75960;PMS7003;64644;48.914;2.254;2023-07-09T08:39:53;9.25;9.25;7.50
75960;PMS7003;64644;48.914;2.254;2023-07-09T08:42:26;12.00;10.75;7.50
75960;PMS7003;64644;48.914;2.254;2023-07-09T08:50:37;11.00;10.25;8.00
75960;PMS7003;64644;48.914;2.254;2023-07-09T08:53:08;11.25;9.00;6.50
75960;PMS7003;64644;48.914;2.254;2023-07-09T08:55:43;11.00;9.75;6.50
75960;PMS7003;64644;48.914;2.254;2023-07-09T08:58:14;11.00;9.50;8.00
75960;PMS7003;64644;48.914;2.254;2023-07-09T09:00:57;8.75;8.75;6.25
75960;PMS7003;64644;48.914;2.254;2023-07-09T09:03:42;8.50;8.50;6.50
75960;PMS7003;64644;48.914;2.254;2023-07-09T09:06:12;12.50;10.50;7.75
75960;PMS7003;64644;48.914;2.254;2023-07-09T09:11:43;10.50;8.50;7.25
75960;PMS7003;64644;48.914;2.254;2023-07-09T09:14:27;12.75;12.75;9.75
75960;PMS7003;64644;48.914;2.254;2023-07-09T09:17:09;11.25;10.00;8.00
75960;PMS7003;64644;48.914;2.254;2023-07-09T09:19:38;9.50;9.50;6.75
75960;PMS7003;64644;48.914;2.254;2023-07-09T09:22:11;10.25;9.00;6.75
75960;PMS7003;64644;48.914;2.254;2023-07-09T09:24:49;8.50;8.50;5.75
75960;PMS7003;64644;48.914;2.254;2023-07-09T09:27:38;9.75;9.75;7.75
75960;PMS7003;64644;48.914;2.254;2023-07-09T09:30:03;12.00;10.25;7.25
75960;PMS7003;64644;48.914;2.254;2023-07-09T09:32:31;11.50;10.25;8.50
75960;PMS7003;64644;48.914;2.254;2023-07-09T09:35:14;10.25;9.50;8.00
75960;PMS7003;64644;48.914;2.254;2023-07-09T09:37:44;11.75;9.75;6.25
75960;PMS7003;64644;48.914;2.254;2023-07-09T09:40:16;10.00;9.50;6.50
75960;PMS7003;64644;48.914;2.254;2023-07-09T09:42:47;10.75;10.75;7.75
75960;PMS7003;64644;48.914;2.254;2023-07-09T09:45:13;9.50;8.00;6.00
75960;PMS7003;64644;48.914;2.254;2023-07-09T09:47:41;10.25;10.25;8.50
75960;PMS7003;64644;48.914;2.254;2023-07-09T09:50:10;9.25;9.25;7.50
75960;PMS7003;64644;48.914;2.254;2023-07-09T09:52:39;9.75;9.25;7.00
75960;PMS7003;64644;48.914;2.254;2023-07-09T09:55:12;12.25;10.50;7.75
75960;PMS7003;64644;48.914;2.254;2023-07-09T09:57:50;13.00;11.75;8.25
75960;PMS7003;64644;48.914;2.254;2023-07-09T10:00:17;13.50;13.25;10.00
75960;PMS7003;64644;48.914;2.254;2023-07-09T10:02:46;11.50;11.00;7.00
75960;PMS7003;64644;48.914;2.254;2023-07-09T10:05:12;10.75;10.75;9.00
75960;PMS7003;64644;48.914;2.254;2023-07-09T10:07:53;12.25;11.25;8.00
75960;PMS7003;64644;48.914;2.254;2023-07-09T10:10:28;12.75;12.00;8.50
75960;PMS7003;64644;48.914;2.254;2023-07-09T10:13:43;11.75;11.50;8.00
75960;PMS7003;64644;48.914;2.254;2023-07-09T10:16:14;12.50;10.00;9.25
75960;PMS7003;64644;48.914;2.254;2023-07-09T10:21:40;11.00;10.25;6.75
75960;PMS7003;64644;48.914;2.254;2023-07-09T10:30:13;14.25;12.75;9.50
75960;PMS7003;64644;48.914;2.254;2023-07-09T10:36:01;17.25;15.25;11.00
75960;PMS7003;64644;48.914;2.254;2023-07-09T10:40:59;16.50;16.50;12.50
75960;PMS7003;64644;48.914;2.254;2023-07-09T10:46:25;13.50;13.25;10.75
75960;PMS7003;64644;48.914;2.254;2023-07-09T10:48:53;14.25;14.25;11.00
75960;PMS7003;64644;48.914;2.254;2023-07-09T10:51:31;16.00;12.00;10.00
75960;PMS7003;64644;48.914;2.254;2023-07-09T10:56:31;14.25;13.75;11.00
75960;PMS7003;64644;48.914;2.254;2023-07-09T11:01:41;14.75;14.75;11.50
75960;PMS7003;64644;48.914;2.254;2023-07-09T11:04:33;15.75;12.75;10.00
75960;PMS7003;64644;48.914;2.254;2023-07-09T11:06:59;17.25;14.75;10.00
75960;PMS7003;64644;48.914;2.254;2023-07-09T11:09:30;58.50;47.00;30.00
75960;PMS7003;64644;48.914;2.254;2023-07-09T11:11:57;59.75;48.50;32.50
75960;PMS7003;64644;48.914;2.254;2023-07-09T11:14:39;13.25;12.00;9.75
75960;PMS7003;64644;48.914;2.254;2023-07-09T11:17:14;25.00;21.75;15.00
75960;PMS7003;64644;48.914;2.254;2023-07-09T11:19:43;30.25;27.50;19.75
75960;PMS7003;64644;48.914;2.254;2023-07-09T11:22:15;17.75;16.50;13.00
75960;PMS7003;64644;48.914;2.254;2023-07-09T11:24:48;11.75;10.25;8.00
75960;PMS7003;64644;48.914;2.254;2023-07-09T11:27:16;11.50;11.00;8.25
75960;PMS7003;64644;48.914;2.254;2023-07-09T11:29:47;17.50;15.75;12.25
75960;PMS7003;64644;48.914;2.254;2023-07-09T11:32:21;11.25;9.75;8.00
75960;PMS7003;64644;48.914;2.254;2023-07-09T11:34:47;11.50;11.50;9.00
75960;PMS7003;64644;48.914;2.254;2023-07-09T11:37:13;9.00;9.00;5.50
75960;PMS7003;64644;48.914;2.254;2023-07-09T11:44:50;10.00;10.00;8.00
75960;PMS7003;64644;48.914;2.254;2023-07-09T11:47:27;11.25;10.50;7.75
75960;PMS7003;64644;48.914;2.254;2023-07-09T11:50:04;8.25;7.25;5.00
75960;PMS7003;64644;48.914;2.254;2023-07-09T11:52:41;9.50;9.50;6.75
75960;PMS7003;64644;48.914;2.254;2023-07-09T11:58:01;7.00;7.00;5.75
75960;PMS7003;64644;48.914;2.254;2023-07-09T12:00:37;7.50;7.00;5.75
75960;PMS7003;64644;48.914;2.254;2023-07-09T12:03:09;7.50;7.50;5.25
75960;PMS7003;64644;48.914;2.254;2023-07-09T12:05:49;9.25;9.25;7.00
75960;PMS7003;64644;48.914;2.254;2023-07-09T12:08:16;8.50;8.00;6.00
75960;PMS7003;64644;48.914;2.254;2023-07-09T12:10:43;7.00;7.00;5.00
75960;PMS7003;64644;48.914;2.254;2023-07-09T12:13:09;6.50;6.50;5.00
75960;PMS7003;64644;48.914;2.254;2023-07-09T12:15:38;8.75;7.00;5.25
75960;PMS7003;64644;48.914;2.254;2023-07-09T12:18:09;10.00;6.00;5.00
75960;PMS7003;64644;48.914;2.254;2023-07-09T12:20:36;7.50;7.25;5.50
75960;PMS7003;64644;48.914;2.254;2023-07-09T12:25:51;5.00;5.00;4.00
75960;PMS7003;64644;48.914;2.254;2023-07-09T12:28:17;6.00;6.00;4.00
75960;PMS7003;64644;48.914;2.254;2023-07-09T12:30:45;7.00;5.75;5.00
75960;PMS7003;64644;48.914;2.254;2023-07-09T12:33:12;6.25;6.25;5.00
75960;PMS7003;64644;48.914;2.254;2023-07-09T12:35:41;6.25;6.25;4.00
75960;PMS7003;64644;48.914;2.254;2023-07-09T12:38:19;8.25;7.75;5.00
75960;PMS7003;64644;48.914;2.254;2023-07-09T12:40:47;6.75;6.25;5.00
75960;PMS7003;64644;48.914;2.254;2023-07-09T12:43:15;5.75;5.75;5.00
75960;PMS7003;64644;48.914;2.254;2023-07-09T12:45:44;7.75;7.75;5.00
75960;PMS7003;64644;48.914;2.254;2023-07-09T12:48:10;7.00;6.25;5.50
75960;PMS7003;64644;48.914;2.254;2023-07-09T12:50:38;8.00;7.25;5.50
75960;PMS7003;64644;48.914;2.254;2023-07-09T12:53:14;8.00;7.00;6.00
75960;PMS7003;64644;48.914;2.254;2023-07-09T12:55:45;5.75;5.75;4.75
75960;PMS7003;64644;48.914;2.254;2023-07-09T12:58:23;4.25;4.25;3.50
75960;PMS7003;64644;48.914;2.254;2023-07-09T13:00:52;7.00;7.00;5.25
75960;PMS7003;64644;48.914;2.254;2023-07-09T13:03:27;6.25;6.25;5.00
75960;PMS7003;64644;48.914;2.254;2023-07-09T13:05:54;6.50;6.50;5.25
75960;PMS7003;64644;48.914;2.254;2023-07-09T13:08:20;5.50;5.50;3.25
75960;PMS7003;64644;48.914;2.254;2023-07-09T13:10:45;6.50;6.50;4.00
75960;PMS7003;64644;48.914;2.254;2023-07-09T13:13:15;5.25;5.25;4.00
75960;PMS7003;64644;48.914;2.254;2023-07-09T13:15:41;5.25;4.00;3.25
75960;PMS7003;64644;48.914;2.254;2023-07-09T13:18:10;5.00;5.00;4.25
75960;PMS7003;64644;48.914;2.254;2023-07-09T13:20:38;8.00;4.50;3.50
75960;PMS7003;64644;48.914;2.254;2023-07-09T13:23:09;5.00;5.00;3.25
75960;PMS7003;64644;48.914;2.254;2023-07-09T13:25:38;6.50;4.50;4.00
75960;PMS7003;64644;48.914;2.254;2023-07-09T13:28:04;4.25;4.25;3.00
75960;PMS7003;64644;48.914;2.254;2023-07-09T13:30:29;6.50;5.00;4.00
75960;PMS7003;64644;48.914;2.254;2023-07-09T13:32:56;4.50;4.50;3.25
75960;PMS7003;64644;48.914;2.254;2023-07-09T13:35:22;5.50;5.50;5.00
75960;PMS7003;64644;48.914;2.254;2023-07-09T13:37:47;4.25;4.00;3.50
75960;PMS7003;64644;48.914;2.254;2023-07-09T13:40:14;5.75;5.25;4.00
75960;PMS7003;64644;48.914;2.254;2023-07-09T13:42:41;5.25;5.25;3.75
75960;PMS7003;64644;48.914;2.254;2023-07-09T13:45:21;7.00;7.00;5.00
75960;PMS7003;64644;48.914;2.254;2023-07-09T13:47:49;5.00;3.75;3.00
75960;PMS7003;64644;48.914;2.254;2023-07-09T13:50:16;4.25;4.25;3.50
75960;PMS7003;64644;48.914;2.254;2023-07-09T13:52:43;5.75;4.25;4.00
75960;PMS7003;64644;48.914;2.254;2023-07-09T13:55:19;6.00;5.25;4.00
75960;PMS7003;64644;48.914;2.254;2023-07-09T13:57:47;5.00;3.75;3.00
75960;PMS7003;64644;48.914;2.254;2023-07-09T14:00:13;6.25;5.25;4.00
75960;PMS7003;64644;48.914;2.254;2023-07-09T14:02:40;5.00;5.00;4.00
75960;PMS7003;64644;48.914;2.254;2023-07-09T14:05:06;4.50;4.50;4.00
75960;PMS7003;64644;48.914;2.254;2023-07-09T14:07:38;5.00;5.00;3.00
75960;PMS7003;64644;48.914;2.254;2023-07-09T14:10:06;6.00;5.00;3.50
75960;PMS7003;64644;48.914;2.254;2023-07-09T14:12:37;5.00;5.00;4.00
75960;PMS7003;64644;48.914;2.254;2023-07-09T14:15:05;3.00;3.00;2.00
75960;PMS7003;64644;48.914;2.254;2023-07-09T14:17:40;6.25;6.00;4.00
75960;PMS7003;64644;48.914;2.254;2023-07-09T14:20:05;5.25;4.00;4.00
75960;PMS7003;64644;48.914;2.254;2023-07-09T14:22:34;3.00;2.50;2.50
75960;PMS7003;64644;48.914;2.254;2023-07-09T14:25:01;7.00;4.00;3.00
75960;PMS7003;64644;48.914;2.254;2023-07-09T14:27:27;3.75;3.75;3.00
75960;PMS7003;64644;48.914;2.254;2023-07-09T14:29:53;6.00;5.00;4.00
75960;PMS7003;64644;48.914;2.254;2023-07-09T14:34:57;6.75;6.75;4.25
75960;PMS7003;64644;48.914;2.254;2023-07-09T14:37:22;4.50;4.50;4.00
75960;PMS7003;64644;48.914;2.254;2023-07-09T14:39:47;4.25;4.25;3.75
75960;PMS7003;64644;48.914;2.254;2023-07-09T14:42:13;4.25;4.00;4.00
75960;PMS7003;64644;48.914;2.254;2023-07-09T14:44:39;5.25;5.25;4.00
75960;PMS7003;64644;48.914;2.254;2023-07-09T14:47:09;6.00;4.75;4.00
75960;PMS7003;64644;48.914;2.254;2023-07-09T14:49:39;5.00;4.00;3.50
75960;PMS7003;64644;48.914;2.254;2023-07-09T14:52:05;6.00;6.00;4.75
75960;PMS7003;64644;48.914;2.254;2023-07-09T14:54:35;7.00;6.00;5.00
75960;PMS7003;64644;48.914;2.254;2023-07-09T14:57:00;7.25;6.00;4.75
75960;PMS7003;64644;48.914;2.254;2023-07-09T14:59:26;6.00;6.00;4.75